Time;durP1;ratioP1;P1;durP2;ratioP2;P2;SDS_P1;SDS_P2;PMS_P1;PMS_P2;Temp;Humidity;BMP_temperature;BMP_pressure;BME280_temperature;BME280_humidity;BME280_pressure;Samples;Min_cycle;Max_cycle;Signal;HPM_P1;HPM_P2
2022/04/25 00:04:47;;;;;;;30.53;20.53;;;;;;;5.60;100.00;95396.38;10410098;28;20220;-58
2022/04/25 00:09:47;;;;;;;27.53;19.67;;;;;;;5.58;100.00;95399.13;10458989;22;20330;-61
2022/04/25 00:14:47;;;;;;;31.70;21.63;;;;;;;5.58;100.00;95399.13;10451367;28;20183;-60
2022/04/25 00:19:48;;;;;;;26.33;19.53;;;;;;;5.66;100.00;95412.13;10458898;28;20218;-59
2022/04/25 00:24:50;;;;;;;26.57;19.27;;;;;;;5.67;100.00;95405.19;10459475;28;20295;-60
2022/04/25 00:29:50;;;;;;;24.60;18.73;;;;;;;5.68;100.00;95394.63;10458874;28;20227;-61
2022/04/25 00:34:51;;;;;;;23.50;18.20;;;;;;;5.68;100.00;95409.38;10459333;28;20647;-59
2022/04/25 00:39:51;;;;;;;27.00;18.33;;;;;;;5.71;100.00;95404.69;10458414;28;20220;-60
2022/04/25 00:44:51;;;;;;;26.77;21.13;;;;;;;5.65;100.00;95405.34;10458491;28;20307;-56
2022/04/25 00:49:52;;;;;;;30.63;20.23;;;;;;;5.64;100.00;95411.50;10458547;28;20288;-56
2022/04/25 00:54:52;;;;;;;30.87;22.53;;;;;;;5.66;100.00;95412.13;10457538;28;20275;-58
2022/04/25 00:59:59;;;;;;;28.03;20.97;;;;;;;5.68;100.00;95411.97;10439995;28;20617;-57
2022/04/25 01:05:00;;;;;;;34.73;24.50;;;;;;;5.68;100.00;95412.81;10457179;28;20216;-60
2022/04/25 01:10:00;;;;;;;29.90;21.13;;;;;;;5.70;100.00;95410.84;10457503;28;20720;-58
2022/04/25 01:15:07;;;;;;;34.50;23.37;;;;;;;5.65;100.00;95414.88;10457457;28;20192;-59
2022/04/25 01:20:08;;;;;;;28.80;21.20;;;;;;;5.66;100.00;95411.34;10457134;28;20299;-57
2022/04/25 01:30:32;;;;;;;31.37;22.23;;;;;;;5.72;100.00;95416.69;10455794;28;20203;-53
2022/04/25 01:35:32;;;;;;;31.30;22.07;;;;;;;5.71;100.00;95416.84;10454225;28;20247;-61
2022/04/25 01:40:32;;;;;;;26.60;20.20;;;;;;;5.71;100.00;95422.06;10450521;28;20306;-59
2022/04/25 01:45:33;;;;;;;27.13;19.17;;;;;;;5.71;100.00;95412.50;10449650;28;20278;-58
2022/04/25 01:50:33;;;;;;;29.07;20.70;;;;;;;5.69;100.00;95430.00;10458387;28;20224;-59
2022/04/25 01:55:33;;;;;;;25.37;19.33;;;;;;;5.73;100.00;95433.13;10459484;28;20222;-59
2022/04/25 02:00:34;;;;;;;23.20;16.77;;;;;;;5.69;100.00;95435.19;10456218;28;20221;-59
2022/04/25 02:05:34;;;;;;;24.57;16.80;;;;;;;5.67;100.00;95439.75;10437340;28;20591;-60
2022/04/25 02:10:35;;;;;;;26.00;18.10;;;;;;;5.72;100.00;95432.28;10455210;28;20243;-58
2022/04/25 02:15:35;;;;;;;26.10;17.20;;;;;;;5.70;100.00;95443.84;10454950;28;20210;-58
2022/04/25 02:20:36;;;;;;;26.30;19.27;;;;;;;5.71;100.00;95454.06;10455032;28;20208;-62
2022/04/25 02:25:36;;;;;;;26.80;18.47;;;;;;;5.82;100.00;95452.97;10454549;28;20223;-61
2022/04/25 02:30:36;;;;;;;27.63;19.57;;;;;;;5.79;100.00;95458.47;10454418;28;20308;-61
2022/04/25 02:35:37;;;;;;;28.03;19.40;;;;;;;5.80;100.00;95459.28;10454193;28;20180;-55
2022/04/25 02:40:37;;;;;;;29.43;20.27;;;;;;;5.79;100.00;95455.88;10436691;28;20309;-59
2022/04/25 02:45:38;;;;;;;27.00;20.83;;;;;;;5.76;100.00;95457.97;10453814;28;20231;-60
2022/04/25 02:50:39;;;;;;;33.43;21.67;;;;;;;5.72;100.00;95452.28;10453395;28;20257;-59
2022/04/25 02:55:39;;;;;;;32.80;22.13;;;;;;;5.80;100.00;95454.88;10453403;28;20741;-61
2022/04/25 03:00:40;;;;;;;30.17;21.87;;;;;;;5.76;100.00;95456.19;10453361;28;20204;-58
2022/04/25 03:05:45;;;;;;;33.63;22.63;;;;;;;5.77;100.00;95457.00;10452815;28;20230;-56
2022/04/25 03:10:47;;;;;;;37.47;24.00;;;;;;;5.75;100.00;95451.16;10453048;28;20244;-60
2022/04/25 03:15:47;;;;;;;41.10;24.40;;;;;;;5.72;100.00;95460.88;10452855;28;20571;-60
2022/04/25 03:20:49;;;;;;;40.23;25.17;;;;;;;5.79;100.00;95462.84;10452620;28;20225;-57
2022/04/25 03:25:50;;;;;;;38.80;23.77;;;;;;;5.87;100.00;95462.88;10452700;28;20220;-59
2022/04/25 03:30:51;;;;;;;35.07;22.53;;;;;;;5.94;100.00;95463.06;10452577;28;20235;-57
2022/04/25 03:35:51;;;;;;;32.80;24.00;;;;;;;5.86;100.00;95467.25;10452416;28;20175;-59
2022/04/25 03:40:51;;;;;;;31.00;22.30;;;;;;;5.90;100.00;95470.38;10452393;28;20220;-58
2022/04/25 03:45:52;;;;;;;34.33;23.63;;;;;;;5.85;100.00;95473.44;10452090;28;20223;-59
2022/04/25 03:50:52;;;;;;;33.20;22.90;;;;;;;5.84;100.00;95478.78;10454344;28;20552;-59
2022/04/25 04:01:12;;;;;;;29.73;21.37;;;;;;;5.89;100.00;95486.91;10465557;28;20277;-59
2022/04/25 04:06:13;;;;;;;29.97;22.03;;;;;;;5.84;100.00;95482.19;10465574;28;20824;-59
2022/04/25 04:11:14;;;;;;;32.13;22.10;;;;;;;5.84;100.00;95492.59;10465599;28;20265;-57
2022/04/25 04:16:14;;;;;;;30.00;21.30;;;;;;;5.98;100.00;95499.00;10465536;28;20602;-58
2022/04/25 04:21:14;;;;;;;33.27;22.03;;;;;;;5.91;100.00;95508.34;10462522;28;20587;-58
2022/04/25 04:26:15;;;;;;;30.50;20.87;;;;;;;5.95;100.00;95512.28;10465416;28;20293;-60
2022/04/25 04:31:15;;;;;;;29.13;20.47;;;;;;;5.97;100.00;95515.59;10459781;28;20200;-59
2022/04/25 04:36:18;;;;;;;30.20;21.60;;;;;;;5.95;100.00;95522.69;10465497;28;20243;-57
2022/04/25 04:41:19;;;;;;;32.23;20.83;;;;;;;5.95;100.00;95530.47;10464872;28;20208;-59
2022/04/25 04:46:19;;;;;;;32.17;20.63;;;;;;;5.98;100.00;95539.78;10465114;28;20289;-61
2022/04/25 04:51:19;;;;;;;30.80;21.50;;;;;;;6.01;100.00;95547.28;10464643;28;20208;-62
2022/04/25 04:56:20;;;;;;;31.80;21.87;;;;;;;6.03;100.00;95559.16;10464617;28;20206;-63
2022/04/25 05:01:20;;;;;;;29.57;20.97;;;;;;;6.08;100.00;95561.28;10465035;28;20211;-61
2022/04/25 05:06:21;;;;;;;37.47;21.60;;;;;;;6.02;100.00;95565.31;10456872;28;20282;-63
2022/04/25 05:11:21;;;;;;;39.30;24.70;;;;;;;6.04;100.00;95567.75;10458211;28;20239;-61
2022/04/25 05:16:22;;;;;;;32.37;21.53;;;;;;;6.06;100.00;95577.03;10457717;28;20634;-63
2022/04/25 05:21:22;;;;;;;28.50;20.80;;;;;;;6.06;100.00;95581.41;10457470;28;20694;-62
2022/04/25 05:26:23;;;;;;;41.70;20.53;;;;;;;6.04;100.00;95594.56;10457433;28;20729;-58
2022/04/25 05:31:24;;;;;;;40.80;20.87;;;;;;;5.91;100.00;95591.53;10457110;28;20220;-62
2022/04/25 05:36:24;;;;;;;37.33;19.87;;;;;;;5.93;100.00;95605.22;10457338;28;20609;-59
2022/04/25 05:41:25;;;;;;;46.57;20.60;;;;;;;6.03;100.00;95610.31;10456825;28;20625;-61
2022/04/25 05:46:25;;;;;;;53.37;22.50;;;;;;;6.11;100.00;95618.16;10456613;28;20226;-60
2022/04/25 05:56:44;;;;;;;308.63;26.97;;;;;;;5.96;100.00;95637.88;10456008;28;20278;-60
2022/04/25 06:01:45;;;;;;;445.37;34.63;;;;;;;5.97;100.00;95637.75;10456245;28;20306;-61
2022/04/25 06:06:45;;;;;;;344.17;35.60;;;;;;;5.97;100.00;95648.16;10455734;28;20281;-59
2022/04/25 06:11:46;;;;;;;568.60;45.03;;;;;;;5.93;100.00;95643.41;10509052;22;20246;-56
2022/04/25 06:16:46;;;;;;;278.73;28.83;;;;;;;6.00;100.00;95647.84;10496852;28;20654;-57
2022/04/25 06:21:46;;;;;;;397.80;35.97;;;;;;;6.01;100.00;95661.66;10496371;28;20214;-61
2022/04/25 06:26:47;;;;;;;693.67;52.97;;;;;;;6.00;100.00;95654.81;10496605;28;20689;-61
2022/04/25 06:31:47;;;;;;;202.83;31.40;;;;;;;6.06;100.00;95664.59;10495975;28;20731;-61
2022/04/25 06:37:46;;;;;;;527.10;44.00;;;;;;;-145.68;100.00;63218.00;10496105;28;20195;-61
2022/04/25 06:43:45;;;;;;;164.43;37.07;;;;;;;-145.68;100.00;63218.00;10495586;28;20218;-60
2022/04/25 06:49:44;;;;;;;68.57;34.70;;;;;;;-145.68;100.00;63218.00;10495057;28;20723;-55
2022/04/25 06:55:43;;;;;;;62.03;36.77;;;;;;;-145.68;100.00;63218.00;10494827;28;20199;-60
2022/04/25 07:01:42;;;;;;;61.63;36.53;;;;;;;-145.68;100.00;63218.00;10494588;28;20203;-61
2022/04/25 07:07:42;;;;;;;59.93;37.93;;;;;;;-145.68;100.00;63218.00;10492433;28;20211;-60
2022/04/25 07:13:42;;;;;;;66.10;38.63;;;;;;;-145.68;100.00;63218.00;10488960;28;20247;-60
2022/04/25 07:19:41;;;;;;;67.90;37.87;;;;;;;-145.68;100.00;63218.00;10490128;28;20226;-58
2022/04/25 07:31:57;;;;;;;56.27;36.23;;;;;;;-145.68;100.00;63218.00;10488813;28;20219;-56
2022/04/25 07:37:56;;;;;;;49.10;33.57;;;;;;;-145.68;100.00;63218.00;10489670;28;20176;-59
2022/04/25 07:43:55;;;;;;;52.23;35.60;;;;;;;-145.68;100.00;63218.00;10486160;28;20197;-59
2022/04/25 07:49:54;;;;;;;50.50;32.30;;;;;;;-145.68;100.00;63218.00;10488659;28;20230;-60
2022/04/25 07:55:53;;;;;;;51.70;33.13;;;;;;;-145.68;100.00;63218.00;10490048;28;20191;-59
2022/04/25 08:01:51;;;;;;;59.57;32.90;;;;;;;-145.68;100.00;63218.00;10490255;28;20203;-59
2022/04/25 08:07:50;;;;;;;55.33;33.43;;;;;;;-145.68;100.00;63218.00;10489723;28;20226;-59
2022/04/25 08:20:21;;;;;;;51.23;30.13;;;;;;;-145.68;100.00;63218.00;10444851;28;20223;-57
2022/04/25 08:26:21;;;;;;;50.37;29.33;;;;;;;-145.68;100.00;63218.00;10489380;28;20190;-56
2022/04/25 08:32:20;;;;;;;59.93;31.43;;;;;;;-145.68;100.00;63218.00;10471004;28;20219;-57
2022/04/25 08:38:19;;;;;;;54.40;32.07;;;;;;;-145.68;100.00;63218.00;10490923;28;20225;-58
2022/04/25 08:44:18;;;;;;;44.00;30.10;;;;;;;-145.68;100.00;63218.00;10495829;28;20195;-58
2022/04/25 08:50:17;;;;;;;49.90;30.00;;;;;;;-145.68;100.00;63218.00;10496849;28;20230;-58
2022/04/25 08:56:16;;;;;;;44.50;28.90;;;;;;;-145.68;100.00;63218.00;10496617;28;20199;-57
2022/04/25 09:02:15;;;;;;;54.90;30.10;;;;;;;-145.68;100.00;63218.00;10496360;28;20242;-59
2022/04/25 09:08:15;;;;;;;49.93;28.57;;;;;;;-145.68;100.00;63218.00;10495976;28;20230;-54
2022/04/25 09:14:14;;;;;;;46.27;29.00;;;;;;;-145.68;100.00;63218.00;10496023;28;20203;-58
2022/04/25 09:20:13;;;;;;;41.97;28.07;;;;;;;-145.68;100.00;63218.00;10475087;28;20207;-57
2022/04/25 09:26:16;;;;;;;41.77;25.30;;;;;;;-145.68;100.00;63218.00;10492226;28;20201;-54
2022/04/25 09:32:18;;;;;;;32.67;23.20;;;;;;;-145.68;100.00;63218.00;10495112;28;20222;-54
2022/04/25 09:38:18;;;;;;;33.87;21.80;;;;;;;-145.68;100.00;63218.00;10495134;28;20187;-55
2022/04/25 09:44:17;;;;;;;31.93;22.50;;;;;;;-145.68;100.00;63218.00;10476759;28;20209;-56
2022/04/25 09:50:19;;;;;;;36.77;24.37;;;;;;;-145.68;100.00;63218.00;10492284;28;20247;-57
2022/04/25 09:56:19;;;;;;;40.73;24.37;;;;;;;-145.68;100.00;63218.00;10493616;28;20546;-56
2022/04/25 10:02:20;;;;;;;35.97;25.67;;;;;;;-145.68;100.00;63218.00;10491490;28;20231;-55
2022/04/25 10:08:20;;;;;;;34.17;23.87;;;;;;;-145.68;100.00;63218.00;10491545;28;20214;-54
2022/04/25 10:14:18;;;;;;;33.07;21.90;;;;;;;-145.68;100.00;63218.00;10493253;28;20612;-55
2022/04/25 10:20:19;;;;;;;30.77;22.50;;;;;;;-145.68;100.00;63218.00;10474246;28;20215;-58
2022/04/25 10:26:17;;;;;;;27.10;19.50;;;;;;;-145.68;100.00;63218.00;10493162;28;20214;-59
2022/04/25 10:32:27;;;;;;;25.97;17.70;;;;;;;-145.68;100.00;63218.00;10492762;28;20211;-58
2022/04/25 10:38:47;;;;;;;25.30;16.70;;;;;;;-145.68;100.00;63218.00;10492042;28;20179;-54
2022/04/25 10:44:45;;;;;;;29.97;21.17;;;;;;;-145.68;100.00;63218.00;10488673;28;20622;-54
2022/04/25 10:51:06;;;;;;;21.43;15.93;;;;;;;-145.68;100.00;63218.00;10492201;28;20226;-54
2022/04/25 10:57:08;;;;;;;25.70;18.23;;;;;;;-145.68;100.00;63218.00;10491658;28;20187;-57
2022/04/25 11:03:20;;;;;;;20.43;15.53;;;;;;;-145.68;100.00;63218.00;10490525;28;20570;-55
2022/04/25 11:09:40;;;;;;;21.13;16.57;;;;;;;-145.68;100.00;63218.00;10490880;28;20276;-57
2022/04/25 11:16:23;;;;;;;22.37;16.07;;;;;;;-145.68;100.00;63218.00;10490870;28;20551;-55
2022/04/25 11:22:29;;;;;;;19.80;14.50;;;;;;;-145.68;100.00;63218.00;10444448;28;20222;-58
2022/04/25 11:28:54;;;;;;;20.60;14.23;;;;;;;-145.68;100.00;63218.00;10488041;28;20256;-57
2022/04/25 11:34:57;;;;;;;19.00;13.97;;;;;;;-145.68;100.00;63218.00;10486963;28;20187;-58
2022/04/25 11:41:06;;;;;;;16.43;12.73;;;;;;;-145.68;100.00;63218.00;10489010;28;20234;-60
2022/04/25 11:47:05;;;;;;;24.20;13.20;;;;;;;-145.68;100.00;63218.00;10488091;28;20190;-59
2022/04/25 11:53:06;;;;;;;21.00;14.10;;;;;;;-145.68;100.00;63218.00;10486817;28;20207;-58
2022/04/25 11:59:06;;;;;;;15.37;10.80;;;;;;;-145.68;100.00;63218.00;10488336;28;20842;-57
2022/04/25 12:05:11;;;;;;;16.03;10.50;;;;;;;-145.68;100.00;63218.00;10490105;28;20222;-56
2022/04/25 12:17:38;;;;;;;10.95;7.20;;;;;;;-145.68;100.00;63218.00;10456717;28;20200;-60
2022/04/25 12:23:48;;;;;;;10.20;6.70;;;;;;;-145.68;100.00;63218.00;10456621;28;20225;-56
2022/04/25 12:30:08;;;;;;;7.50;6.68;;;;;;;-145.68;100.00;63218.00;10448616;28;20219;-51
2022/04/25 12:36:20;;;;;;;10.07;7.05;;;;;;;-145.68;100.00;63218.00;10455911;28;20625;-56
2022/04/25 12:42:20;;;;;;;11.77;7.43;;;;;;;-145.68;100.00;63218.00;10455692;28;20241;-55
2022/04/25 12:48:19;;;;;;;12.27;7.72;;;;;;;-145.68;100.00;63218.00;10455302;28;20223;-56
2022/04/25 12:54:56;;;;;;;11.30;7.70;;;;;;;-145.68;100.00;63218.00;10454214;28;20208;-52
2022/04/25 13:00:54;;;;;;;13.20;7.90;;;;;;;-145.68;100.00;63218.00;10453468;28;20250;-54
2022/04/25 13:06:53;;;;;;;9.43;7.93;;;;;;;-145.68;100.00;63218.00;10454770;28;20200;-59
2022/04/25 13:12:53;;;;;;;9.82;6.93;;;;;;;-145.68;100.00;63218.00;10437153;28;20227;-57
2022/04/25 13:18:53;;;;;;;11.93;6.60;;;;;;;-145.68;100.00;63218.00;10454619;28;20234;-55
2022/04/25 13:24:52;;;;;;;11.23;6.20;;;;;;;-145.68;100.00;63218.00;10452884;28;20207;-55
2022/04/25 13:30:53;;;;;;;9.57;6.97;;;;;;;-145.68;100.00;63218.00;10454057;28;20231;-57
2022/04/25 13:36:52;;;;;;;8.50;6.90;;;;;;;-145.68;100.00;63218.00;10453034;28;20655;-55
2022/04/25 13:42:52;;;;;;;11.23;7.30;;;;;;;-145.68;100.00;63218.00;10434931;28;20219;-58
2022/04/25 13:48:51;;;;;;;8.18;6.78;;;;;;;-145.68;100.00;63218.00;10433328;28;20244;-57
2022/04/25 13:54:50;;;;;;;8.55;6.88;;;;;;;-145.68;100.00;63218.00;10450126;28;20219;-56
2022/04/25 14:00:49;;;;;;;8.15;5.88;;;;;;;-145.68;100.00;63218.00;10452037;28;20207;-57
2022/04/25 14:06:47;;;;;;;6.75;5.60;;;;;;;-145.68;100.00;63218.00;10431409;28;20640;-55
2022/04/25 14:12:46;;;;;;;7.72;6.07;;;;;;;-145.68;100.00;63218.00;10452008;28;20259;-57
2022/04/25 14:18:45;;;;;;;15.80;12.00;;;;;;;-145.68;100.00;63218.00;10451963;28;20245;-56
2022/04/25 14:24:44;;;;;;;18.95;12.68;;;;;;;-145.68;100.00;63218.00;10451809;28;20600;-56
2022/04/25 14:30:43;;;;;;;18.83;12.23;;;;;;;-145.68;100.00;63218.00;10448648;28;20212;-56
2022/04/25 14:36:42;;;;;;;10.20;7.80;;;;;;;-145.68;100.00;63218.00;10445533;28;20199;-55
2022/04/25 14:42:41;;;;;;;9.82;8.05;;;;;;;-145.68;100.00;63218.00;10448492;28;20204;-57
2022/04/25 14:48:47;;;;;;;10.60;8.00;;;;;;;-145.68;100.00;63218.00;10448902;28;20212;-57
2022/04/25 14:54:45;;;;;;;8.35;6.00;;;;;;;-145.68;100.00;63218.00;10450349;28;20215;-58
2022/04/25 15:00:45;;;;;;;8.95;7.50;;;;;;;-145.68;100.00;63218.00;10450239;28;20234;-56
2022/04/25 15:06:44;;;;;;;13.80;7.45;;;;;;;-145.68;100.00;63218.00;10450261;28;20282;-52
2022/04/25 15:12:43;;;;;;;12.07;7.70;;;;;;;-145.68;100.00;63218.00;10448187;28;20263;-59
2022/04/25 15:18:41;;;;;;;9.30;7.50;;;;;;;-145.68;100.00;63218.00;10448962;28;20607;-58
2022/04/25 15:24:40;;;;;;;9.98;8.82;;;;;;;-145.68;100.00;63218.00;10447513;28;20234;-55
2022/04/25 15:30:42;;;;;;;12.05;9.05;;;;;;;-145.68;100.00;63218.00;10447311;28;20219;-58
2022/04/25 15:36:41;;;;;;;19.23;10.40;;;;;;;-145.68;100.00;63218.00;10446731;28;20195;-58
2022/04/25 15:42:40;;;;;;;12.50;9.38;;;;;;;-145.68;100.00;63218.00;10443348;28;20204;-57
2022/04/25 15:48:38;;;;;;;11.30;9.48;;;;;;;-145.68;100.00;63218.00;10442887;28;20223;-58
2022/04/25 16:00:55;;;;;;;11.27;8.48;;;;;;;-145.68;100.00;63218.00;10446867;28;20208;-59
2022/04/25 16:06:53;;;;;;;8.25;6.38;;;;;;;-145.68;100.00;63218.00;10446027;28;20214;-54
2022/04/25 16:12:52;;;;;;;9.30;6.60;;;;;;;-145.68;100.00;63218.00;10442417;28;79548;-57
2022/04/25 16:18:51;;;;;;;7.97;7.10;;;;;;;-145.68;100.00;63218.00;10430350;28;20192;-57
2022/04/25 16:24:50;;;;;;;8.50;7.50;;;;;;;-145.68;100.00;63218.00;10447684;28;20215;-57
2022/04/25 16:30:50;;;;;;;9.97;7.60;;;;;;;-145.68;100.00;63218.00;10446949;28;20224;-58
2022/04/25 16:36:51;;;;;;;8.63;7.47;;;;;;;-145.68;100.00;63218.00;10448233;28;20204;-59
2022/04/25 16:42:52;;;;;;;10.00;8.10;;;;;;;-145.68;100.00;63218.00;10448362;28;20709;-59
2022/04/25 16:48:50;;;;;;;9.13;7.78;;;;;;;-145.68;100.00;63218.00;10454652;28;20227;-56
2022/04/25 16:54:49;;;;;;;9.95;7.10;;;;;;;-145.68;100.00;63218.00;10450931;28;20706;-55
2022/04/25 17:00:48;;;;;;;11.73;8.67;;;;;;;-145.68;100.00;63218.00;10455045;28;20215;-59
2022/04/25 17:06:48;;;;;;;15.63;9.03;;;;;;;-145.68;100.00;63218.00;10458229;28;20211;-56
2022/04/25 17:12:47;;;;;;;12.77;9.17;;;;;;;-145.68;100.00;63218.00;10457813;28;20346;-54
2022/04/25 17:18:45;;;;;;;11.07;8.60;;;;;;;-145.68;100.00;63218.00;10454385;28;20188;-56
2022/04/25 17:24:44;;;;;;;12.73;9.87;;;;;;;-145.68;100.00;63218.00;10457661;28;20211;-58
2022/04/25 17:30:43;;;;;;;14.10;8.97;;;;;;;-145.68;100.00;63218.00;10457285;28;20689;-59
